Time;durP1;ratioP1;P1;durP2;ratioP2;P2;SDS_P1;SDS_P2;PMS_P1;PMS_P2;Temp;Humidity;BMP_temperature;BMP_pressure;BME280_temperature;BME280_humidity;BME280_pressure;Samples;Min_cycle;Max_cycle;Signal;HPM_P1;HPM_P2
2022/11/12 00:02:12;;;;;;;4.80;4.22;;;17.10;64.10;;;;;;5053361;28;20253;-67
2022/11/12 00:04:37;;;;;;;4.22;3.80;;;17.10;64.20;;;;;;5052275;28;20175;-67
2022/11/12 00:07:03;;;;;;;5.40;4.15;;;17.10;64.20;;;;;;5053384;28;20167;-66
2022/11/12 00:09:28;;;;;;;5.10;4.32;;;17.10;64.20;;;;;;5053005;28;20198;-66
2022/11/12 00:11:54;;;;;;;4.40;3.83;;;17.10;64.30;;;;;;5052235;28;20301;-65
2022/11/12 00:14:19;;;;;;;4.75;4.35;;;17.00;64.30;;;;;;5052958;28;20266;-66
2022/11/12 00:16:45;;;;;;;4.80;3.85;;;17.00;64.30;;;;;;5052607;28;20630;-66
2022/11/12 00:19:10;;;;;;;4.05;3.63;;;17.10;64.30;;;;;;5052666;28;20252;-67
2022/11/12 00:21:36;;;;;;;6.32;4.05;;;17.00;64.50;;;;;;5052864;28;20236;-65
2022/11/12 00:24:01;;;;;;;4.57;3.97;;;17.00;64.40;;;;;;5052424;28;20167;-65
2022/11/12 00:26:27;;;;;;;4.20;3.85;;;17.00;64.50;;;;;;5052877;28;20183;-65
2022/11/12 00:28:52;;;;;;;5.95;3.90;;;16.90;64.50;;;;;;5052782;28;20175;-65
2022/11/12 00:31:18;;;;;;;5.00;4.50;;;16.90;64.80;;;;;;5051970;28;20270;-67
2022/11/12 00:33:43;;;;;;;4.20;3.80;;;16.90;64.90;;;;;;5052221;28;20572;-66
2022/11/12 00:36:10;;;;;;;4.95;4.45;;;16.80;65.00;;;;;;5053021;28;20668;-66
2022/11/12 00:38:35;;;;;;;4.30;3.58;;;16.80;65.00;;;;;;5051495;28;20217;-66
2022/11/12 00:41:01;;;;;;;4.05;3.70;;;16.70;65.00;;;;;;5052882;28;20207;-65
2022/11/12 00:43:26;;;;;;;5.55;4.07;;;16.70;65.20;;;;;;5052694;28;20171;-65
2022/11/12 00:45:52;;;;;;;4.40;4.00;;;16.70;65.20;;;;;;5051641;28;20178;-65
2022/11/12 00:48:17;;;;;;;5.07;4.55;;;16.70;65.20;;;;;;5052849;28;20178;-66
2022/11/12 00:50:43;;;;;;;7.32;4.55;;;16.70;65.00;;;;;;5051815;28;20171;-65
2022/11/12 00:53:08;;;;;;;6.40;4.63;;;16.60;64.90;;;;;;5051178;28;20203;-65
2022/11/12 00:55:34;;;;;;;4.88;4.05;;;16.60;65.00;;;;;;5050940;28;20225;-65
2022/11/12 00:57:59;;;;;;;6.03;4.32;;;16.60;64.90;;;;;;5052257;28;20637;-65
2022/11/12 01:00:25;;;;;;;5.65;4.00;;;16.60;65.00;;;;;;5050245;28;20175;-65
2022/11/12 01:02:50;;;;;;;4.18;3.78;;;16.60;65.00;;;;;;5052531;28;20181;-65
2022/11/12 01:05:17;;;;;;;4.55;4.15;;;16.50;64.90;;;;;;5052766;28;20171;-66
2022/11/12 01:07:42;;;;;;;4.75;4.25;;;16.50;65.00;;;;;;5051436;28;20171;-66
2022/11/12 01:10:08;;;;;;;4.47;4.07;;;16.50;64.90;;;;;;5052484;28;20309;-65
2022/11/12 01:12:34;;;;;;;4.30;3.90;;;16.50;64.90;;;;;;5052273;28;20206;-65
2022/11/12 01:15:00;;;;;;;4.57;4.03;;;16.50;64.80;;;;;;5051759;28;20187;-65
2022/11/12 01:17:26;;;;;;;4.50;4.10;;;16.50;64.80;;;;;;5052363;28;20523;-65
2022/11/12 01:19:51;;;;;;;4.80;4.40;;;16.50;64.80;;;;;;5052279;28;20262;-65
2022/11/12 01:22:17;;;;;;;4.25;3.83;;;16.50;64.80;;;;;;5051722;28;20617;-65
2022/11/12 01:24:42;;;;;;;4.20;3.80;;;16.50;64.80;;;;;;5052041;28;20180;-65
2022/11/12 01:27:08;;;;;;;4.65;4.25;;;16.40;64.50;;;;;;5052474;28;20187;-66
2022/11/12 01:29:33;;;;;;;4.63;4.13;;;16.40;64.70;;;;;;5051197;28;20183;-66
2022/11/12 01:31:59;;;;;;;4.30;3.90;;;16.40;64.70;;;;;;5052447;28;20179;-66
2022/11/12 01:34:24;;;;;;;4.40;4.00;;;16.40;64.80;;;;;;5054652;28;20182;-66
2022/11/12 01:36:50;;;;;;;4.82;4.32;;;16.40;64.70;;;;;;5055882;28;20167;-65
2022/11/12 01:39:15;;;;;;;4.45;4.05;;;16.40;64.70;;;;;;5056145;28;20175;-65
2022/11/12 01:41:41;;;;;;;3.92;3.58;;;16.30;64.50;;;;;;5055062;28;20316;-65
2022/11/12 01:44:20;;;;;;;4.60;4.20;;;16.30;64.70;;;;;;5055869;28;20199;-65
2022/11/12 01:47:26;;;;;;;4.78;4.22;;;16.40;64.40;;;;;;5055565;28;20528;-65
2022/11/12 01:49:55;;;;;;;4.15;3.75;;;16.30;64.50;;;;;;5053756;28;20177;-65
2022/11/12 01:52:27;;;;;;;4.15;3.75;;;16.30;64.30;;;;;;5055758;28;20285;-67
2022/11/12 01:54:53;;;;;;;3.95;3.65;;;16.30;64.30;;;;;;5055674;28;20264;-67
2022/11/12 01:57:31;;;;;;;4.60;4.20;;;16.30;64.40;;;;;;5054044;28;20176;-64
2022/11/12 01:59:59;;;;;;;4.18;3.78;;;16.30;64.40;;;;;;5055825;28;20185;-65
2022/11/12 02:02:26;;;;;;;4.65;4.22;;;16.30;64.20;;;;;;5054842;28;20175;-65
2022/11/12 02:04:51;;;;;;;4.25;3.85;;;16.30;64.20;;;;;;5053991;28;20183;-66
2022/11/12 02:07:17;;;;;;;4.07;3.72;;;16.30;64.20;;;;;;5054490;28;20182;-66
2022/11/12 02:09:42;;;;;;;3.97;3.60;;;16.20;64.10;;;;;;5053173;28;21058;-65
2022/11/12 02:13:56;;;;;;;4.22;3.83;;;16.20;64.10;;;;;;5053952;28;20713;-65
2022/11/12 02:14:53;;;;;;;4.60;4.20;;;16.20;64.10;;;;;;5054276;28;20178;-65
2022/11/12 02:17:19;;;;;;;4.60;4.20;;;16.20;64.00;;;;;;5054783;28;20187;-65
2022/11/12 02:19:45;;;;;;;4.15;3.78;;;16.20;64.00;;;;;;5037160;28;20175;-65
2022/11/12 02:22:10;;;;;;;4.20;3.80;;;16.20;64.00;;;;;;5054079;28;20179;-65
2022/11/12 02:24:36;;;;;;;4.65;4.28;;;16.20;63.90;;;;;;5054300;28;20180;-65
2022/11/12 02:27:02;;;;;;;4.45;4.00;;;16.20;64.00;;;;;;5055329;28;20178;-65
2022/11/12 02:29:27;;;;;;;4.35;3.95;;;16.20;63.90;;;;;;5055029;28;20179;-66
2022/11/12 02:31:53;;;;;;;5.32;4.25;;;16.20;63.80;;;;;;5054233;28;20164;-65
2022/11/12 02:34:18;;;;;;;4.88;4.05;;;16.20;63.90;;;;;;5055141;28;20183;-66
2022/11/12 02:36:44;;;;;;;4.20;3.78;;;16.20;63.70;;;;;;5054892;28;20171;-66
2022/11/12 02:39:09;;;;;;;3.75;3.45;;;16.20;63.80;;;;;;5054439;28;20171;-65
2022/11/12 02:41:35;;;;;;;4.82;3.72;;;16.20;63.80;;;;;;5054682;28;20214;-65
2022/11/12 02:44:00;;;;;;;4.28;3.88;;;16.10;63.60;;;;;;5054457;28;20539;-65
2022/11/12 02:46:26;;;;;;;4.53;4.05;;;16.20;63.60;;;;;;5053362;28;20641;-65
2022/11/12 02:48:51;;;;;;;3.95;3.60;;;16.10;63.60;;;;;;5054354;28;20519;-65
2022/11/12 02:51:17;;;;;;;4.88;4.00;;;16.20;63.70;;;;;;5054751;28;20594;-65
2022/11/12 02:53:42;;;;;;;4.43;4.05;;;16.10;63.60;;;;;;5053578;28;20305;-65
2022/11/12 02:56:08;;;;;;;4.13;3.72;;;16.10;63.60;;;;;;5054790;28;20175;-64
2022/11/12 02:58:33;;;;;;;4.53;4.13;;;16.10;63.60;;;;;;5054414;28;20265;-65
2022/11/12 03:00:59;;;;;;;4.55;4.10;;;16.10;63.70;;;;;;5053984;28;20254;-65
2022/11/12 03:03:24;;;;;;;4.75;4.28;;;16.10;63.60;;;;;;5054520;28;20263;-66
2022/11/12 03:05:54;;;;;;;4.60;4.20;;;16.10;63.70;;;;;;5053698;28;20274;-66
2022/11/12 03:08:20;;;;;;;3.90;3.60;;;16.10;63.70;;;;;;5054482;28;20622;-65
2022/11/12 03:10:45;;;;;;;4.05;3.67;;;16.10;63.60;;;;;;5053852;28;20276;-65
2022/11/12 03:13:11;;;;;;;6.28;4.10;;;16.10;63.60;;;;;;5053685;28;20207;-65
2022/11/12 03:15:36;;;;;;;4.10;3.80;;;16.10;63.60;;;;;;5053954;28;20167;-66
2022/11/12 03:18:02;;;;;;;4.50;4.10;;;16.10;63.60;;;;;;5054329;28;20190;-65
2022/11/12 03:20:28;;;;;;;4.45;4.05;;;16.00;63.60;;;;;;5053499;28;20179;-65
2022/11/12 03:22:58;;;;;;;4.30;3.90;;;16.00;63.60;;;;;;5054110;28;20628;-65
2022/11/12 03:25:24;;;;;;;4.93;3.90;;;16.00;63.60;;;;;;5054106;28;20182;-65
2022/11/12 03:28:00;;;;;;;3.80;3.50;;;16.00;63.60;;;;;;5053083;28;20171;-64
2022/11/12 03:30:27;;;;;;;4.07;3.70;;;16.00;63.50;;;;;;5053890;28;20186;-65
2022/11/12 03:32:52;;;;;;;4.38;3.97;;;16.00;63.60;;;;;;5053973;28;20219;-65
2022/11/12 03:35:18;;;;;;;4.15;3.75;;;16.00;63.60;;;;;;5053359;28;20267;-65
2022/11/12 03:37:43;;;;;;;4.60;4.20;;;16.00;63.60;;;;;;5053783;28;20266;-65
2022/11/12 03:40:09;;;;;;;3.67;3.38;;;16.00;63.50;;;;;;5053945;28;20283;-65
2022/11/12 03:42:35;;;;;;;4.20;3.90;;;16.00;63.50;;;;;;5052732;28;20697;-65
2022/11/12 03:45:00;;;;;;;4.18;3.80;;;16.00;63.60;;;;;;5053699;28;20185;-65
2022/11/12 03:47:26;;;;;;;4.07;3.78;;;16.00;63.70;;;;;;5053907;28;20174;-64
2022/11/12 03:49:51;;;;;;;4.22;3.83;;;16.00;63.50;;;;;;5052380;28;20232;-65
2022/11/12 03:52:17;;;;;;;4.13;3.72;;;15.90;63.50;;;;;;5053429;28;20688;-65
2022/11/12 03:54:42;;;;;;;4.40;4.00;;;15.90;63.50;;;;;;5053022;28;20688;-65
2022/11/12 03:57:08;;;;;;;3.97;3.58;;;15.90;63.60;;;;;;5052300;28;20191;-65
2022/11/12 03:59:33;;;;;;;4.30;3.88;;;15.90;63.50;;;;;;5052894;28;20205;-64
2022/11/12 04:01:59;;;;;;;4.20;3.80;;;15.90;63.80;;;;;;5052566;28;20591;-65
2022/11/12 04:08:34;;;;;;;3.92;3.63;;;15.90;63.70;;;;;;5053294;28;20645;-65
2022/11/12 04:09:54;;;;;;;3.60;3.30;;;15.90;63.70;;;;;;5052304;28;20644;-65
2022/11/12 04:15:03;;;;;;;4.55;4.10;;;15.90;63.60;;;;;;5053299;28;20175;-65
2022/11/12 04:22:57;;;;;;;3.88;3.58;;;15.90;63.60;;;;;;5052995;28;20165;-65
2022/11/12 04:28:06;;;;;;;3.90;3.60;;;15.90;63.60;;;;;;5053202;28;20244;-65
2022/11/12 04:30:32;;;;;;;3.80;3.42;;;15.80;63.40;;;;;;5052047;28;20178;-65
2022/11/12 04:32:57;;;;;;;4.20;3.90;;;15.80;63.60;;;;;;5052655;28;20199;-65
2022/11/12 04:35:24;;;;;;;4.15;3.83;;;15.80;63.40;;;;;;5053052;28;20236;-65
2022/11/12 04:37:50;;;;;;;3.97;3.67;;;15.80;63.50;;;;;;5051900;28;20178;-65
2022/11/12 04:45:51;;;;;;;4.22;3.83;;;15.80;63.60;;;;;;5052021;28;20220;-64
2022/11/12 04:48:16;;;;;;;3.78;3.47;;;15.80;63.50;;;;;;5052754;28;20183;-65
2022/11/12 04:50:43;;;;;;;4.63;4.22;;;15.80;63.50;;;;;;5052667;28;20589;-65
2022/11/12 04:53:09;;;;;;;4.07;3.67;;;15.80;63.60;;;;;;5050764;28;20211;-65
2022/11/12 04:55:35;;;;;;;3.92;3.63;;;15.80;63.50;;;;;;5052409;28;20183;-64
2022/11/12 04:58:00;;;;;;;4.00;3.70;;;15.80;63.60;;;;;;5052684;28;20672;-64
2022/11/12 05:00:26;;;;;;;4.05;3.70;;;15.80;63.60;;;;;;5051943;28;20649;-65
2022/11/12 05:02:51;;;;;;;4.07;3.60;;;15.80;63.50;;;;;;5052461;28;20637;-65
2022/11/12 05:05:17;;;;;;;4.25;3.78;;;15.80;63.50;;;;;;5051973;28;20572;-66
2022/11/12 05:07:42;;;;;;;4.20;3.80;;;15.80;63.50;;;;;;5052576;28;20704;-66
2022/11/12 05:10:08;;;;;;;4.13;3.72;;;15.80;63.60;;;;;;5056539;28;20751;-65
2022/11/12 05:12:33;;;;;;;3.90;3.60;;;15.80;63.50;;;;;;5055461;28;20252;-65
2022/11/12 05:14:59;;;;;;;4.53;4.07;;;15.80;63.70;;;;;;5056769;28;20175;-65
2022/11/12 05:17:25;;;;;;;4.43;4.03;;;15.70;63.60;;;;;;5056829;28;20167;-65
2022/11/12 05:19:50;;;;;;;3.95;3.65;;;15.70;63.60;;;;;;5055465;28;20270;-65
2022/11/12 05:22:16;;;;;;;4.50;4.10;;;15.70;63.40;;;;;;5056641;28;20186;-65
2022/11/12 05:24:42;;;;;;;4.25;3.85;;;15.70;63.40;;;;;;5056107;28;20167;-65
2022/11/12 05:27:12;;;;;;;4.10;3.75;;;15.70;63.40;;;;;;5055660;28;20175;-65
2022/11/12 05:29:38;;;;;;;4.50;4.10;;;15.70;63.70;;;;;;5056167;28;20175;-65
2022/11/12 05:32:05;;;;;;;4.20;3.63;;;15.70;63.50;;;;;;5056398;28;20541;-66
2022/11/12 05:34:30;;;;;;;4.20;3.80;;;15.70;63.60;;;;;;5054031;28;20665;-66
2022/11/12 05:36:56;;;;;;;3.95;3.63;;;15.70;63.60;;;;;;5056156;28;20189;-65
2022/11/12 05:39:21;;;;;;;4.50;3.65;;;15.70;63.50;;;;;;5056329;28;20175;-66
2022/11/12 05:41:47;;;;;;;4.38;3.97;;;15.70;63.60;;;;;;5055430;28;20636;-65
2022/11/12 05:44:12;;;;;;;4.07;3.70;;;15.70;63.70;;;;;;5056241;28;20171;-65
2022/11/12 05:46:38;;;;;;;4.05;3.63;;;15.70;63.60;;;;;;5055848;28;20179;-65
2022/11/12 05:49:04;;;;;;;4.28;3.88;;;15.60;63.50;;;;;;5055556;28;20175;-65
2022/11/12 05:51:29;;;;;;;4.38;3.83;;;15.60;63.70;;;;;;5055509;28;20171;-65
2022/11/12 05:53:55;;;;;;;4.65;4.25;;;15.70;63.50;;;;;;5055877;28;20275;-65
2022/11/12 05:56:20;;;;;;;4.10;3.70;;;15.60;63.50;;;;;;5055144;28;20167;-64
2022/11/12 05:58:46;;;;;;;4.43;4.03;;;15.60;63.50;;;;;;5055633;28;20178;-64
2022/11/12 06:01:11;;;;;;;3.92;3.53;;;15.60;63.60;;;;;;5056000;28;20205;-65
2022/11/12 06:03:37;;;;;;;4.10;3.80;;;15.60;63.60;;;;;;5054684;28;20179;-65
2022/11/12 06:06:02;;;;;;;3.78;3.38;;;15.60;63.80;;;;;;5056086;28;20171;-66
2022/11/12 06:08:28;;;;;;;4.53;4.13;;;15.60;63.70;;;;;;5055473;28;20217;-66
2022/11/12 06:10:53;;;;;;;3.70;3.40;;;15.70;63.70;;;;;;5054535;28;20325;-65
2022/11/12 06:13:20;;;;;;;4.32;3.90;;;15.70;63.60;;;;;;5055321;28;20719;-65
2022/11/12 06:15:45;;;;;;;4.13;3.72;;;15.80;63.40;;;;;;5054633;28;20187;-65
2022/11/12 06:18:11;;;;;;;3.63;3.33;;;15.90;63.30;;;;;;5055412;28;20633;-65
2022/11/12 06:20:36;;;;;;;3.90;3.60;;;16.00;63.30;;;;;;5055080;28;20171;-65
2022/11/12 06:23:02;;;;;;;3.78;3.45;;;16.10;63.10;;;;;;5054666;28;20305;-65
2022/11/12 06:25:28;;;;;;;4.47;4.05;;;16.10;63.80;;;;;;5054960;28;20175;-65
2022/11/12 06:27:53;;;;;;;3.97;3.58;;;16.20;62.90;;;;;;5055434;28;20182;-65
2022/11/12 06:30:19;;;;;;;4.05;3.67;;;16.20;62.90;;;;;;5054649;28;20179;-65
2022/11/12 06:32:48;;;;;;;3.72;3.30;;;16.20;62.90;;;;;;5054913;28;20210;-66
2022/11/12 06:35:14;;;;;;;3.70;3.40;;;16.20;62.90;;;;;;5055214;28;20179;-66
2022/11/12 06:37:39;;;;;;;3.70;3.35;;;16.20;62.90;;;;;;5054156;28;20209;-65
2022/11/12 06:40:05;;;;;;;3.78;3.47;;;16.20;62.80;;;;;;5054908;28;20175;-65
2022/11/12 06:42:31;;;;;;;4.10;3.70;;;16.30;62.70;;;;;;5054823;28;20183;-65
2022/11/12 06:44:57;;;;;;;3.70;3.22;;;16.40;62.60;;;;;;5054207;28;20186;-65
2022/11/12 06:47:22;;;;;;;3.70;3.40;;;16.40;62.40;;;;;;5054834;28;20622;-65
2022/11/12 06:49:48;;;;;;;3.97;3.63;;;16.40;62.40;;;;;;5054385;28;20175;-65
2022/11/12 06:52:14;;;;;;;3.63;3.05;;;16.40;62.40;;;;;;5054067;28;20182;-65
2022/11/12 06:54:40;;;;;;;3.88;3.45;;;16.40;62.40;;;;;;5054145;28;20175;-65
2022/11/12 06:57:05;;;;;;;3.80;3.50;;;16.30;62.40;;;;;;5054838;28;20178;-65
2022/11/12 06:59:31;;;;;;;4.20;3.80;;;16.30;62.60;;;;;;5053617;28;20175;-65
2022/11/12 07:01:56;;;;;;;3.85;3.45;;;16.30;62.60;;;;;;5054725;28;20175;-65
2022/11/12 07:04:23;;;;;;;3.55;3.30;;;16.30;62.60;;;;;;5054549;28;20179;-66
2022/11/12 07:06:48;;;;;;;3.60;3.30;;;16.40;62.60;;;;;;5053558;28;20179;-66
2022/11/12 07:09:14;;;;;;;3.60;3.30;;;16.40;62.50;;;;;;5054488;28;20186;-66
2022/11/12 07:11:39;;;;;;;4.10;3.63;;;16.50;62.40;;;;;;5054032;28;20234;-65
2022/11/12 07:14:05;;;;;;;4.05;3.67;;;16.60;62.20;;;;;;5053663;28;20206;-64
2022/11/12 07:16:31;;;;;;;4.03;3.72;;;16.70;62.00;;;;;;5054127;28;20172;-65
2022/11/12 07:18:57;;;;;;;4.78;3.22;;;16.90;61.70;;;;;;5053602;28;20270;-65
2022/11/12 07:21:22;;;;;;;3.63;3.33;;;17.00;61.30;;;;;;5054219;28;20266;-65
2022/11/12 07:23:48;;;;;;;4.03;3.58;;;17.20;61.00;;;;;;5053754;28;21076;-65
2022/11/12 07:26:21;;;;;;;3.85;3.45;;;17.30;60.50;;;;;;5053311;28;20248;-64
2022/11/12 07:28:47;;;;;;;3.83;3.38;;;17.40;60.20;;;;;;5053683;28;20187;-65
2022/11/12 07:31:13;;;;;;;4.63;3.67;;;17.50;60.20;;;;;;5053406;28;20257;-66
2022/11/12 07:33:39;;;;;;;5.85;3.92;;;17.70;59.80;;;;;;5050791;28;20218;-66
2022/11/12 07:36:06;;;;;;;7.10;4.10;;;17.80;59.70;;;;;;5053738;28;20179;-66
2022/11/12 07:38:33;;;;;;;4.18;3.55;;;18.00;59.30;;;;;;5053869;28;20638;-66
2022/11/12 07:41:10;;;;;;;6.53;3.75;;;18.10;59.10;;;;;;5053074;28;20177;-66
2022/11/12 07:43:36;;;;;;;4.63;3.53;;;18.10;59.10;;;;;;5053167;28;20254;-65
2022/11/12 07:46:04;;;;;;;4.60;3.63;;;18.30;58.80;;;;;;5053497;28;20207;-66
2022/11/12 07:48:29;;;;;;;3.83;3.42;;;18.40;58.50;;;;;;5052690;28;20638;-66
2022/11/12 07:51:22;;;;;;;8.07;3.92;;;18.50;58.60;;;;;;5053566;28;20179;-66
2022/11/12 07:53:48;;;;;;;7.13;4.22;;;18.60;58.30;;;;;;5052237;28;20227;-66
2022/11/12 07:56:18;;;;;;;4.55;3.97;;;18.50;58.10;;;;;;5053242;28;20533;-66
2022/11/12 07:58:44;;;;;;;5.22;4.32;;;18.50;58.00;;;;;;5053309;28;20179;-66
2022/11/12 08:01:27;;;;;;;5.30;4.20;;;18.60;57.80;;;;;;5052629;28;20171;-67
2022/11/12 08:03:53;;;;;;;5.22;4.45;;;18.50;57.70;;;;;;5052467;28;20250;-67
2022/11/12 08:06:18;;;;;;;5.60;4.13;;;18.50;57.60;;;;;;5053450;28;20663;-68
2022/11/12 08:08:44;;;;;;;5.15;4.63;;;18.40;57.60;;;;;;5052455;28;20578;-67
2022/11/12 08:11:09;;;;;;;6.68;5.10;;;18.20;57.60;;;;;;5053012;28;20237;-67
2022/11/12 08:13:35;;;;;;;6.05;5.45;;;18.20;57.80;;;;;;5052809;28;20210;-67
2022/11/12 08:16:00;;;;;;;6.78;5.88;;;18.20;57.80;;;;;;5052339;28;20228;-66
2022/11/12 08:18:26;;;;;;;6.78;5.63;;;18.10;57.70;;;;;;5053229;28;20182;-67
2022/11/12 08:20:57;;;;;;;6.85;6.15;;;18.10;57.70;;;;;;5052779;28;20645;-66
2022/11/12 08:23:23;;;;;;;6.10;5.32;;;18.10;57.60;;;;;;5052517;28;20178;-67
2022/11/12 08:25:48;;;;;;;5.25;4.78;;;18.10;57.80;;;;;;5052640;28;20182;-67
2022/11/12 08:28:14;;;;;;;9.55;5.63;;;18.00;58.00;;;;;;5052982;28;20175;-66
2022/11/12 08:30:39;;;;;;;5.80;4.45;;;18.00;58.10;;;;;;5052154;28;20167;-67
2022/11/12 08:33:05;;;;;;;5.45;4.95;;;18.00;58.30;;;;;;5053102;28;20242;-68
2022/11/12 08:35:31;;;;;;;5.38;4.10;;;17.90;58.40;;;;;;5052747;28;20217;-67
2022/11/12 08:37:58;;;;;;;6.07;4.65;;;18.00;58.60;;;;;;5052360;28;20187;-67
2022/11/12 08:40:30;;;;;;;7.70;4.60;;;18.10;58.70;;;;;;5052812;28;20267;-71
2022/11/12 08:43:00;;;;;;;4.65;4.25;;;18.10;58.70;;;;;;5051885;28;20171;-67
2022/11/12 08:45:26;;;;;;;5.97;4.50;;;18.20;58.50;;;;;;5052418;28;20178;-67
2022/11/12 08:47:51;;;;;;;5.53;4.53;;;18.20;58.50;;;;;;5052590;28;20175;-67
2022/11/12 08:50:17;;;;;;;5.00;4.50;;;18.20;58.60;;;;;;5052581;28;20197;-67
2022/11/12 08:52:42;;;;;;;5.38;4.88;;;18.20;58.70;;;;;;5051879;28;20237;-67
2022/11/12 08:55:08;;;;;;;5.05;4.22;;;18.20;58.80;;;;;;5052816;28;20709;-67
2022/11/12 08:57:41;;;;;;;7.13;4.85;;;18.20;58.90;;;;;;5051479;28;20633;-67
2022/11/12 09:00:10;;;;;;;4.82;4.30;;;18.20;58.90;;;;;;5052758;28;20179;-67
2022/11/12 09:02:36;;;;;;;5.30;4.53;;;18.20;59.10;;;;;;5052569;28;20171;-67
2022/11/12 09:05:02;;;;;;;4.90;4.40;;;18.30;59.20;;;;;;5051968;28;20182;-71
2022/11/12 09:07:27;;;;;;;5.25;4.10;;;18.20;59.10;;;;;;5052477;28;20171;-68
2022/11/12 09:09:53;;;;;;;5.80;4.38;;;18.20;59.10;;;;;;5052267;28;20198;-66
2022/11/12 09:12:18;;;;;;;6.18;4.97;;;18.20;59.10;;;;;;5051564;28;20249;-67
2022/11/12 09:14:44;;;;;;;4.22;3.83;;;18.20;59.30;;;;;;5052055;28;20634;-67
2022/11/12 09:17:10;;;;;;;4.95;4.30;;;18.20;59.50;;;;;;5052667;28;20171;-67
2022/11/12 09:19:35;;;;;;;5.05;4.38;;;18.20;59.60;;;;;;5051545;28;20175;-66
2022/11/12 09:22:01;;;;;;;4.90;4.00;;;18.20;59.70;;;;;;5052378;28;20598;-66
2022/11/12 09:24:26;;;;;;;6.13;4.63;;;18.20;59.70;;;;;;5052388;28;20705;-66
2022/11/12 09:26:52;;;;;;;6.57;4.82;;;18.20;59.70;;;;;;5051370;28;20277;-67
2022/11/12 09:29:18;;;;;;;4.63;4.10;;;18.20;59.70;;;;;;5052607;28;20266;-67
2022/11/12 09:31:43;;;;;;;5.95;4.47;;;18.20;59.80;;;;;;5052296;28;20275;-67
2022/11/12 09:34:09;;;;;;;4.07;3.67;;;18.20;59.90;;;;;;5051639;28;20246;-67
2022/11/12 09:36:35;;;;;;;5.63;4.25;;;18.10;60.00;;;;;;5052165;28;20212;-67
2022/11/12 09:39:00;;;;;;;4.60;4.20;;;18.10;60.20;;;;;;5052354;28;20175;-67
2022/11/12 09:41:29;;;;;;;5.03;4.20;;;18.00;60.40;;;;;;5051636;28;20178;-67
2022/11/12 09:43:57;;;;;;;6.47;4.43;;;18.00;60.50;;;;;;5034752;28;20214;-67
2022/11/12 09:46:48;;;;;;;4.35;3.90;;;17.90;60.70;;;;;;5034851;28;20308;-67
2022/11/12 09:49:16;;;;;;;6.10;4.57;;;17.90;60.80;;;;;;5048510;28;20191;-67
2022/11/12 09:51:58;;;;;;;5.60;3.92;;;17.90;61.00;;;;;;5050761;28;20254;-67
2022/11/12 09:54:31;;;;;;;4.53;4.13;;;17.90;61.10;;;;;;5052723;28;20226;-67
2022/11/12 09:56:56;;;;;;;4.88;4.05;;;17.80;61.10;;;;;;5038562;28;20179;-67
2022/11/12 09:59:25;;;;;;;4.95;3.90;;;17.80;61.20;;;;;;5055950;28;20282;-67
2022/11/12 10:02:11;;;;;;;4.32;3.92;;;17.70;61.40;;;;;;5054822;28;20191;-67
2022/11/12 10:04:45;;;;;;;5.00;3.92;;;17.80;61.40;;;;;;5054601;28;20186;-67
2022/11/12 10:07:23;;;;;;;4.18;3.88;;;17.70;61.30;;;;;;5054658;28;20254;-68
2022/11/12 10:10:00;;;;;;;4.45;3.88;;;17.80;61.30;;;;;;5053295;28;20179;-67
2022/11/12 10:12:53;;;;;;;4.65;3.50;;;17.80;61.30;;;;;;5055514;28;20195;-67
2022/11/12 10:18:28;;;;;;;4.18;3.78;;;17.70;61.30;;;;;;5055516;28;20184;-67
2022/11/12 10:21:03;;;;;;;5.00;3.75;;;17.60;61.30;;;;;;5038478;28;20233;-67
2022/11/12 10:23:40;;;;;;;6.22;4.05;;;17.70;61.50;;;;;;5053562;28;20182;-67
2022/11/12 10:26:14;;;;;;;4.25;3.85;;;17.60;61.50;;;;;;5038622;28;20179;-67
2022/11/12 10:28:45;;;;;;;4.05;3.67;;;17.70;61.50;;;;;;5054976;28;20233;-67
2022/11/12 10:31:21;;;;;;;4.20;3.80;;;17.70;61.40;;;;;;5053692;28;20175;-67
2022/11/12 10:33:46;;;;;;;4.43;4.03;;;17.70;61.40;;;;;;5055021;28;20273;-68
2022/11/12 10:36:32;;;;;;;5.32;4.13;;;17.70;61.30;;;;;;5053503;28;20530;-68
2022/11/12 10:38:57;;;;;;;3.70;3.40;;;17.70;61.40;;;;;;5054063;28;20229;-67
2022/11/12 10:41:29;;;;;;;4.35;3.65;;;17.70;61.50;;;;;;5054968;28;20175;-67
2022/11/12 10:43:59;;;;;;;3.97;3.58;;;17.60;61.50;;;;;;5054466;28;20280;-67
2022/11/12 10:46:29;;;;;;;4.13;3.67;;;17.60;61.60;;;;;;5054992;28;20175;-67
2022/11/12 10:49:02;;;;;;;3.55;3.25;;;17.70;61.60;;;;;;5053937;28;20222;-67
2022/11/12 10:51:30;;;;;;;3.65;3.28;;;17.70;61.60;;;;;;5054164;28;20202;-67
2022/11/12 10:53:55;;;;;;;3.95;3.40;;;17.70;61.50;;;;;;5054926;28;20286;-68
2022/11/12 10:56:26;;;;;;;4.18;3.78;;;17.80;61.40;;;;;;5053728;28;20202;-67
2022/11/12 10:59:14;;;;;;;4.18;3.78;;;17.80;61.40;;;;;;5053667;28;20641;-67
2022/11/12 11:01:40;;;;;;;3.38;3.08;;;17.80;61.40;;;;;;5054324;28;20171;-68
2022/11/12 11:04:14;;;;;;;3.72;3.33;;;17.70;61.40;;;;;;5052766;28;20259;-67
2022/11/12 11:06:39;;;;;;;3.88;3.47;;;17.70;61.50;;;;;;5052059;28;20212;-68
2022/11/12 11:09:11;;;;;;;4.28;3.10;;;17.70;61.40;;;;;;5053565;28;20767;-68
2022/11/12 11:11:36;;;;;;;4.05;3.20;;;17.70;61.60;;;;;;5053296;28;20227;-68
2022/11/12 11:14:24;;;;;;;3.65;3.35;;;17.80;61.70;;;;;;5054536;28;20218;-68
2022/11/12 11:16:57;;;;;;;3.75;3.45;;;17.80;61.50;;;;;;5054190;28;20559;-68
2022/11/12 11:19:27;;;;;;;3.30;3.10;;;17.90;61.50;;;;;;5052722;28;20174;-67
2022/11/12 11:21:57;;;;;;;3.78;3.38;;;17.90;61.40;;;;;;5052983;28;20638;-67
2022/11/12 11:24:48;;;;;;;3.30;3.10;;;17.90;61.60;;;;;;5053085;28;20237;-67
2022/11/12 11:27:43;;;;;;;3.60;3.30;;;17.80;61.60;;;;;;5052259;28;20622;-68
2022/11/12 11:30:27;;;;;;;3.35;3.05;;;17.80;61.70;;;;;;5052972;28;20637;-68
2022/11/12 11:33:02;;;;;;;4.10;3.70;;;17.80;61.80;;;;;;5052123;28;20203;-69
2022/11/12 11:35:45;;;;;;;3.70;3.40;;;17.80;61.90;;;;;;5053918;28;20171;-68
2022/11/12 11:38:38;;;;;;;3.30;3.10;;;17.80;61.90;;;;;;5053965;28;20179;-68
2022/11/12 11:41:04;;;;;;;3.83;3.53;;;17.80;62.10;;;;;;5053326;28;20178;-67
2022/11/12 11:43:48;;;;;;;4.07;3.70;;;17.80;62.10;;;;;;5053682;28;20179;-67
2022/11/12 11:46:19;;;;;;;3.80;3.50;;;17.70;62.20;;;;;;5053078;28;20532;-68
2022/11/12 11:49:20;;;;;;;4.00;3.60;;;17.70;62.20;;;;;;5053679;28;20174;-67
2022/11/12 11:51:51;;;;;;;3.15;2.85;;;17.70;62.20;;;;;;5052305;28;20179;-68
2022/11/12 11:54:34;;;;;;;3.83;3.53;;;17.80;62.30;;;;;;5052852;28;20214;-68
2022/11/12 11:57:00;;;;;;;3.92;3.13;;;17.70;62.30;;;;;;5052465;28;20179;-67
2022/11/12 12:00:24;;;;;;;3.35;2.95;;;17.70;62.40;;;;;;5053764;28;20187;-68
2022/11/12 12:02:52;;;;;;;3.35;3.03;;;17.70;62.40;;;;;;5031352;28;20175;-68
2022/11/12 12:05:30;;;;;;;3.60;3.05;;;17.70;62.40;;;;;;5031481;28;20263;-68
2022/11/12 12:08:02;;;;;;;3.38;3.08;;;17.60;62.40;;;;;;5043446;28;20249;-69
2022/11/12 12:10:44;;;;;;;3.92;3.20;;;17.70;62.50;;;;;;5051778;28;20643;-68
2022/11/12 12:13:25;;;;;;;3.50;3.20;;;17.70;62.50;;;;;;5053263;28;20238;-67
2022/11/12 12:16:00;;;;;;;3.85;3.17;;;17.70;62.60;;;;;;5035535;28;20629;-68
2022/11/12 12:18:25;;;;;;;3.33;3.03;;;17.70;62.60;;;;;;5053193;28;20300;-68
2022/11/12 12:21:00;;;;;;;3.15;2.88;;;17.70;62.60;;;;;;5053022;28;20191;-67
2022/11/12 12:23:39;;;;;;;3.75;2.70;;;17.70;62.70;;;;;;5052387;28;20174;-68
2022/11/12 12:26:10;;;;;;;3.67;3.33;;;17.60;62.70;;;;;;5036032;28;20191;-67
2022/11/12 12:28:55;;;;;;;3.50;3.20;;;17.70;62.80;;;;;;5051170;28;20253;-67
2022/11/12 12:31:24;;;;;;;3.45;3.15;;;17.60;62.80;;;;;;5052038;28;20183;-68
2022/11/12 12:33:56;;;;;;;3.53;3.22;;;17.60;62.80;;;;;;5051372;28;20214;-68
2022/11/12 12:36:29;;;;;;;3.53;3.22;;;17.60;62.70;;;;;;5051120;28;20175;-68
2022/11/12 12:39:21;;;;;;;3.72;3.28;;;17.60;62.80;;;;;;5051961;28;20202;-68
2022/11/12 12:42:14;;;;;;;3.00;2.80;;;17.60;62.80;;;;;;5036573;28;20288;-68
2022/11/12 12:44:59;;;;;;;3.42;3.13;;;17.60;62.80;;;;;;5050699;28;20175;-67
2022/11/12 12:47:27;;;;;;;3.50;3.20;;;17.60;62.80;;;;;;5052030;28;20186;-67
2022/11/12 12:49:52;;;;;;;3.30;3.05;;;17.70;62.90;;;;;;5051087;28;20198;-66
2022/11/12 12:52:18;;;;;;;4.55;3.50;;;17.60;62.80;;;;;;5052786;28;20626;-67
2022/11/12 12:54:46;;;;;;;2.97;2.78;;;17.60;62.90;;;;;;5052525;28;20248;-67
2022/11/12 12:57:32;;;;;;;3.88;3.47;;;17.60;62.90;;;;;;5052160;28;20175;-69
2022/11/12 13:00:23;;;;;;;3.88;3.35;;;17.60;62.90;;;;;;5051807;28;20178;-67
2022/11/12 13:02:48;;;;;;;3.45;3.15;;;17.60;62.90;;;;;;5052456;28;20180;-67
2022/11/12 13:05:24;;;;;;;3.20;2.90;;;17.60;62.90;;;;;;5050762;28;20178;-68
2022/11/12 13:07:49;;;;;;;3.00;2.70;;;17.60;62.90;;;;;;5051318;28;20186;-68
2022/11/12 13:10:43;;;;;;;2.85;2.55;;;17.60;62.90;;;;;;5051452;28;20268;-67
2022/11/12 13:13:18;;;;;;;3.05;2.83;;;17.60;63.00;;;;;;5052593;28;20203;-67
2022/11/12 13:15:46;;;;;;;2.95;2.75;;;17.60;62.90;;;;;;5052353;28;20171;-67
2022/11/12 13:18:32;;;;;;;3.20;2.75;;;17.60;62.90;;;;;;5051825;28;20635;-67
2022/11/12 13:21:10;;;;;;;2.88;2.67;;;17.70;63.00;;;;;;5052468;28;20175;-67